KILE/ILE METAR and TAF weather

Enter ICAO airport designator
Station Type Date Time Source
KILE METAR 2019/06/27 08:56 UTC NOAA

KILE 270856Z AUTO 17004KT 10SM OVC005 23/22 A3015 RMK AO2 SLP196 T02280217 55005


Station Type Date Time Source
KILE Decoded METAR 2019/06/27 08:56 UTC NOAA

Killeen, Skylark Field Airport, TX, United States (KILE) 31-05N 097-41W
Jun 27, 2019 - 04:56 AM EDT / 2019.06.27 0856 UTC
Wind: from the S (170 degrees) at 5 MPH (4 KT):0
Visibility: 10 mile(s):0
Sky conditions: overcast
Temperature: 73.0 F (22.8 C)
Dew Point: 71.1 F (21.7 C)
Relative Humidity: 93%
Pressure (altimeter): 30.15 in. Hg (1020 hPa)
Pressure tendency: 0.01 inches (0.5 hPa) lower than three hours ago
ob: KILE 270856Z AUTO 17004KT 10SM OVC005 23/22 A3015 RMK AO2 SLP196 T02280217 55005
cycle: 9

Station Type Date Time Source
KILE TAF UTC NOAA

Error!

Example: see airport list